Time;durP1;ratioP1;P1;durP2;ratioP2;P2;SDS_P1;SDS_P2;PMS_P1;PMS_P2;Temp;Humidity;BMP_temperature;BMP_pressure;BME280_temperature;BME280_humidity;BME280_pressure;Samples;Min_cycle;Max_cycle;Signal;HPM_P1;HPM_P2
2022/12/14 00:00:39;;;;;;;15.65;7.85;;;-2.90;99.90;;;;;;5085608;28;20210;-84
2022/12/14 00:03:06;;;;;;;14.65;7.47;;;-2.90;99.90;;;;;;5085564;28;20697;-85
2022/12/14 00:05:33;;;;;;;15.25;7.15;;;-3.00;99.90;;;;;;5085292;28;20196;-85
2022/12/14 00:08:00;;;;;;;21.35;10.77;;;-3.00;99.90;;;;;;5084880;28;20219;-85
2022/12/14 00:10:27;;;;;;;18.60;8.25;;;-2.90;99.90;;;;;;5085085;28;20218;-85
2022/12/14 00:12:53;;;;;;;12.18;7.88;;;-2.90;99.90;;;;;;5085068;28;20215;-85
2022/12/14 00:15:22;;;;;;;16.08;7.25;;;-2.90;99.90;;;;;;5085834;28;20211;-85
2022/12/14 00:17:49;;;;;;;13.68;7.72;;;-2.70;99.90;;;;;;5085744;28;20250;-85
2022/12/14 00:20:16;;;;;;;30.52;8.68;;;-2.60;99.90;;;;;;5084795;28;20196;-85
2022/12/14 00:22:43;;;;;;;14.88;7.20;;;-2.70;99.90;;;;;;5084950;28;20222;-87
2022/12/14 00:25:10;;;;;;;17.80;7.97;;;-2.60;99.90;;;;;;5085104;28;20207;-86
2022/12/14 00:27:41;;;;;;;15.40;7.75;;;-2.60;99.90;;;;;;5084550;28;20189;-85
2022/12/14 00:30:09;;;;;;;12.05;6.30;;;-2.50;99.90;;;;;;5085669;28;20618;-85
2022/12/14 00:32:37;;;;;;;19.00;7.88;;;-2.50;99.90;;;;;;5084477;28;20227;-86
2022/12/14 00:35:04;;;;;;;12.93;6.75;;;-2.50;99.90;;;;;;5087884;28;20192;-85
2022/12/14 00:37:31;;;;;;;14.98;8.05;;;-2.40;99.90;;;;;;5091088;28;20196;-85
2022/12/14 00:39:58;;;;;;;15.70;7.97;;;-2.40;99.90;;;;;;5091841;28;20199;-86
2022/12/14 00:42:24;;;;;;;12.80;6.97;;;-2.30;99.90;;;;;;5090697;28;20240;-85
2022/12/14 00:44:51;;;;;;;16.75;8.27;;;-2.40;99.90;;;;;;5091894;28;20203;-85
2022/12/14 00:47:18;;;;;;;12.93;7.35;;;-2.40;99.90;;;;;;5091779;28;20204;-85
2022/12/14 00:49:46;;;;;;;13.13;8.07;;;-2.40;99.90;;;;;;5091162;28;20219;-84
2022/12/14 00:52:13;;;;;;;13.50;7.05;;;-2.40;99.90;;;;;;5091494;28;20212;-85
2022/12/14 00:54:39;;;;;;;13.43;6.32;;;-2.50;99.90;;;;;;5091601;28;20184;-85
2022/12/14 00:57:06;;;;;;;13.90;7.90;;;-2.40;99.90;;;;;;5091887;28;20204;-84
2022/12/14 00:59:33;;;;;;;14.60;8.50;;;-2.40;99.90;;;;;;5091528;28;20192;-86
2022/12/14 01:01:59;;;;;;;12.90;7.80;;;-2.40;99.90;;;;;;5091398;28;20216;-85
2022/12/14 01:04:27;;;;;;;20.17;8.00;;;-2.40;99.90;;;;;;5092109;28;20203;-84
2022/12/14 01:06:55;;;;;;;18.00;8.38;;;-2.30;99.90;;;;;;5109311;28;20194;-85
2022/12/14 01:09:24;;;;;;;15.95;8.10;;;-2.30;99.90;;;;;;5098690;28;20786;-85
2022/12/14 01:11:52;;;;;;;14.43;8.20;;;-2.40;99.90;;;;;;5090600;28;20211;-85
2022/12/14 01:14:19;;;;;;;12.82;6.90;;;-2.20;99.90;;;;;;5092138;28;20263;-85
2022/12/14 01:16:47;;;;;;;18.02;8.38;;;-2.20;99.90;;;;;;5091739;28;20200;-85
2022/12/14 01:19:15;;;;;;;11.15;6.30;;;-2.30;99.90;;;;;;5087379;28;20684;-83
2022/12/14 01:21:42;;;;;;;15.15;8.18;;;-2.20;99.90;;;;;;5090768;28;20223;-85
2022/12/14 01:24:10;;;;;;;20.13;8.15;;;-2.20;99.90;;;;;;5092496;28;20584;-85
2022/12/14 01:26:38;;;;;;;10.18;6.30;;;-2.20;99.90;;;;;;5091946;28;20212;-84
2022/12/14 01:29:06;;;;;;;12.75;6.82;;;-2.20;99.90;;;;;;5090649;28;20212;-85
2022/12/14 01:31:34;;;;;;;13.57;6.95;;;-2.20;99.90;;;;;;5091505;28;20243;-86
2022/12/14 01:34:02;;;;;;;16.77;8.07;;;-2.20;99.90;;;;;;5091445;28;20220;-85
2022/12/14 01:36:31;;;;;;;11.75;6.85;;;-2.20;99.90;;;;;;5091914;28;20206;-85
2022/12/14 01:38:59;;;;;;;12.00;6.18;;;-2.10;99.90;;;;;;5091797;28;20193;-85
2022/12/14 01:41:30;;;;;;;16.40;7.97;;;-2.30;99.90;;;;;;5091610;28;20591;-85
2022/12/14 01:43:59;;;;;;;9.23;6.15;;;-2.30;99.90;;;;;;5091627;28;20181;-86
2022/12/14 01:46:29;;;;;;;12.23;6.50;;;-2.20;99.90;;;;;;5089705;28;20197;-85
2022/12/14 01:49:03;;;;;;;17.00;7.28;;;-2.20;99.90;;;;;;5088322;28;20212;-85
2022/12/14 01:51:32;;;;;;;9.38;6.13;;;-2.10;99.90;;;;;;5087978;28;20208;-85
2022/12/14 01:54:01;;;;;;;16.95;7.72;;;-2.30;99.90;;;;;;5088888;28;20188;-85
2022/12/14 01:56:31;;;;;;;13.20;7.13;;;-2.30;99.90;;;;;;5087470;28;20188;-85
2022/12/14 01:59:04;;;;;;;9.32;5.72;;;-2.40;99.90;;;;;;5087613;28;20191;-85
2022/12/14 02:01:31;;;;;;;12.55;7.45;;;-2.40;99.90;;;;;;5087732;28;20212;-85
2022/12/14 02:03:57;;;;;;;13.25;7.18;;;-2.50;99.90;;;;;;5088007;28;20669;-85
2022/12/14 02:06:27;;;;;;;15.43;6.13;;;-2.60;99.90;;;;;;5088886;28;20203;-86
2022/12/14 02:08:56;;;;;;;17.42;7.45;;;-2.70;99.90;;;;;;5088712;28;20212;-85
2022/12/14 02:11:33;;;;;;;12.20;6.05;;;-2.60;99.90;;;;;;5087842;28;20223;-85
2022/12/14 02:13:59;;;;;;;19.05;7.50;;;-2.60;99.90;;;;;;5088166;28;20219;-85
2022/12/14 02:16:26;;;;;;;15.98;6.32;;;-2.60;99.90;;;;;;5088430;28;20188;-85
2022/12/14 02:18:53;;;;;;;15.60;7.00;;;-2.70;99.90;;;;;;5088052;28;20291;-84
2022/12/14 02:21:24;;;;;;;9.55;6.00;;;-2.60;99.90;;;;;;5087602;28;20212;-85
2022/12/14 02:24:29;;;;;;;10.98;6.78;;;-2.70;99.90;;;;;;5087555;28;20199;-85
2022/12/14 02:27:13;;;;;;;12.02;6.70;;;-2.50;99.90;;;;;;5083033;28;20196;-85
2022/12/14 02:29:57;;;;;;;13.20;6.35;;;-2.60;99.90;;;;;;5087991;28;20212;-86
2022/12/14 02:32:41;;;;;;;11.40;6.80;;;-2.70;99.90;;;;;;5066513;28;20613;-86
2022/12/14 02:35:18;;;;;;;10.70;6.07;;;-2.80;99.90;;;;;;5088000;28;20184;-86
2022/12/14 02:37:53;;;;;;;17.02;6.70;;;-2.70;99.90;;;;;;5087968;28;20690;-85
2022/12/14 02:40:28;;;;;;;13.18;6.20;;;-2.70;99.90;;;;;;5086996;28;20192;-84
2022/12/14 02:43:03;;;;;;;13.63;6.63;;;-2.70;99.90;;;;;;5086920;28;20207;-85
2022/12/14 02:45:37;;;;;;;12.63;5.93;;;-2.70;99.90;;;;;;5086191;28;20196;-85
2022/12/14 02:48:08;;;;;;;12.27;6.65;;;-2.70;99.90;;;;;;5086853;28;20579;-85
2022/12/14 02:50:41;;;;;;;11.65;5.63;;;-2.70;99.90;;;;;;5086437;28;20192;-84
2022/12/14 02:53:16;;;;;;;11.98;6.30;;;-2.80;99.90;;;;;;5087215;28;20590;-85
2022/12/14 02:55:47;;;;;;;11.50;6.00;;;-2.90;99.90;;;;;;5087072;28;20204;-85
2022/12/14 02:58:19;;;;;;;18.42;7.18;;;-2.70;99.90;;;;;;5086474;28;20195;-85
2022/12/14 03:00:48;;;;;;;12.00;6.03;;;-2.90;99.90;;;;;;5086714;28;20200;-86
2022/12/14 03:03:16;;;;;;;12.05;6.68;;;-2.80;99.90;;;;;;5086216;28;20201;-86
2022/12/14 03:05:42;;;;;;;17.00;8.18;;;-2.90;99.90;;;;;;5087454;28;20558;-85
2022/12/14 03:08:13;;;;;;;11.68;6.78;;;-2.90;99.90;;;;;;5086243;28;20196;-85
2022/12/14 03:10:47;;;;;;;13.43;6.68;;;-2.90;99.90;;;;;;5072597;28;20203;-87
2022/12/14 03:13:19;;;;;;;10.68;5.70;;;-3.00;99.90;;;;;;5086633;28;20203;-86
2022/12/14 03:15:54;;;;;;;9.57;5.68;;;-2.90;99.90;;;;;;5086869;28;20199;-85
2022/12/14 03:18:23;;;;;;;11.27;6.72;;;-2.90;99.90;;;;;;5086185;28;20192;-85
2022/12/14 03:20:54;;;;;;;10.68;5.75;;;-2.90;99.90;;;;;;5086148;28;20192;-85
2022/12/14 03:23:24;;;;;;;14.60;6.93;;;-3.00;99.90;;;;;;5086383;28;20192;-85
2022/12/14 03:25:58;;;;;;;10.95;5.70;;;-3.00;99.90;;;;;;5086505;28;20188;-85
2022/12/14 03:28:31;;;;;;;13.88;6.15;;;-3.00;99.90;;;;;;5084974;28;20192;-85
2022/12/14 03:31:05;;;;;;;17.10;6.57;;;-3.00;99.90;;;;;;5085035;28;20248;-85
2022/12/14 03:33:34;;;;;;;15.45;6.05;;;-3.00;99.90;;;;;;5086025;28;20618;-85
2022/12/14 03:36:06;;;;;;;15.80;6.15;;;-3.00;99.90;;;;;;5085749;28;20188;-86
2022/12/14 03:38:39;;;;;;;10.73;6.40;;;-3.10;99.90;;;;;;5085843;28;20197;-85
2022/12/14 03:41:15;;;;;;;15.27;8.05;;;-3.10;99.90;;;;;;5085465;28;20890;-85
2022/12/14 03:43:52;;;;;;;12.30;6.82;;;-3.20;99.90;;;;;;5085847;28;20196;-85
2022/12/14 03:46:28;;;;;;;11.18;6.95;;;-3.10;99.90;;;;;;5085121;28;20188;-84
2022/12/14 03:48:59;;;;;;;12.82;7.05;;;-3.10;99.90;;;;;;5078246;28;20210;-85
2022/12/14 03:51:33;;;;;;;14.18;7.20;;;-3.10;99.90;;;;;;5085522;28;20216;-87
2022/12/14 03:54:05;;;;;;;14.30;7.70;;;-3.20;99.90;;;;;;5085595;28;20196;-85
2022/12/14 03:56:38;;;;;;;15.27;7.25;;;-3.00;99.90;;;;;;5085752;28;20242;-85
2022/12/14 03:59:09;;;;;;;11.55;6.68;;;-2.90;99.90;;;;;;5085623;28;20249;-84
2022/12/14 04:01:45;;;;;;;11.93;6.13;;;-2.90;99.90;;;;;;5083863;28;20212;-86
2022/12/14 04:04:19;;;;;;;10.80;6.53;;;-2.90;99.90;;;;;;5085977;28;20234;-85
2022/12/14 04:06:52;;;;;;;14.90;6.07;;;-2.90;99.90;;;;;;5085229;28;20199;-85
2022/12/14 04:09:29;;;;;;;21.45;8.98;;;-2.80;99.90;;;;;;5082315;28;20211;-87
2022/12/14 04:20:30;;;;;;;11.93;6.88;;;-2.70;99.90;;;;;;5077350;28;20196;-85
2022/12/14 04:23:06;;;;;;;10.32;5.88;;;-2.70;99.90;;;;;;5081871;28;20223;-85
2022/12/14 04:31:17;;;;;;;12.85;6.32;;;-2.70;99.90;;;;;;5084519;28;20299;-85
2022/12/14 04:33:52;;;;;;;15.90;6.90;;;-2.70;99.90;;;;;;5085556;28;20189;-86
2022/12/14 04:36:24;;;;;;;11.02;5.80;;;-2.60;99.90;;;;;;5084185;28;20196;-85
2022/12/14 04:38:55;;;;;;;12.38;7.70;;;-2.60;99.90;;;;;;5083857;28;20192;-87
2022/12/14 04:41:26;;;;;;;12.40;6.47;;;-2.50;99.90;;;;;;5083954;28;20601;-85
2022/12/14 04:43:57;;;;;;;15.30;7.00;;;-2.40;99.90;;;;;;5084537;28;20196;-86
2022/12/14 04:46:27;;;;;;;12.55;7.25;;;-2.40;99.90;;;;;;5084276;28;20197;-86
2022/12/14 04:49:03;;;;;;;14.27;6.72;;;-2.50;99.90;;;;;;5084041;28;20219;-86
2022/12/14 04:51:33;;;;;;;12.98;6.07;;;-2.50;99.90;;;;;;5083683;28;20318;-86
2022/12/14 04:54:06;;;;;;;17.35;6.50;;;-2.50;99.90;;;;;;5085638;28;20244;-86
2022/12/14 04:56:39;;;;;;;12.02;6.03;;;-2.50;99.90;;;;;;5082563;28;20203;-83
2022/12/14 04:59:06;;;;;;;10.63;5.93;;;-2.40;99.90;;;;;;5084490;28;20192;-85
2022/12/14 05:01:44;;;;;;;12.30;6.50;;;-2.40;99.90;;;;;;5083106;28;20219;-85
2022/12/14 05:04:22;;;;;;;13.02;7.50;;;-2.50;99.90;;;;;;5084842;28;20263;-86
2022/12/14 05:06:59;;;;;;;9.98;6.38;;;-2.50;99.90;;;;;;5083200;28;20189;-85
2022/12/14 05:09:30;;;;;;;15.30;6.32;;;-2.50;99.90;;;;;;5083343;28;20215;-85
2022/12/14 05:12:04;;;;;;;14.02;7.00;;;-2.50;99.90;;;;;;5082531;28;20212;-87
2022/12/14 05:14:36;;;;;;;16.15;6.15;;;-2.40;99.90;;;;;;5072317;28;20192;-85
2022/12/14 05:17:06;;;;;;;14.50;7.28;;;-2.40;99.90;;;;;;5083154;28;20220;-86
2022/12/14 05:19:34;;;;;;;10.70;5.75;;;-2.40;99.90;;;;;;5084030;28;20189;-85
2022/12/14 05:22:05;;;;;;;12.00;6.15;;;-2.30;99.90;;;;;;5085380;28;20218;-83
2022/12/14 05:24:32;;;;;;;12.73;7.13;;;-2.20;99.90;;;;;;5086710;28;20199;-85
2022/12/14 05:26:59;;;;;;;16.35;6.90;;;-2.30;99.90;;;;;;5084626;28;20196;-86
2022/12/14 05:29:25;;;;;;;15.13;7.55;;;-2.30;99.90;;;;;;5084998;28;20686;-84
2022/12/14 05:31:52;;;;;;;11.30;6.03;;;-2.30;99.90;;;;;;5084723;28;20231;-86
2022/12/14 05:34:19;;;;;;;10.23;6.60;;;-2.40;99.90;;;;;;5084368;28;20199;-85
2022/12/14 05:36:47;;;;;;;13.93;7.32;;;-2.30;99.90;;;;;;5085695;28;20200;-85
2022/12/14 05:39:15;;;;;;;10.10;5.75;;;-2.20;99.90;;;;;;5085434;28;20211;-85
2022/12/14 05:41:42;;;;;;;13.07;7.53;;;-2.20;99.90;;;;;;5085324;28;20228;-85
2022/12/14 05:44:09;;;;;;;12.05;7.97;;;-2.20;99.90;;;;;;5086145;28;20558;-85
2022/12/14 05:46:44;;;;;;;12.07;6.30;;;-2.30;99.90;;;;;;5084988;28;20569;-85
2022/12/14 05:49:21;;;;;;;10.52;5.80;;;-2.30;99.90;;;;;;5082884;28;20218;-84
2022/12/14 05:51:50;;;;;;;9.18;5.53;;;-2.30;99.90;;;;;;5082319;28;20223;-84
2022/12/14 05:54:17;;;;;;;14.13;7.25;;;-2.30;99.90;;;;;;5082374;28;20196;-85
2022/12/14 05:56:49;;;;;;;22.40;6.90;;;-2.30;99.90;;;;;;5082641;28;20272;-85
2022/12/14 05:59:22;;;;;;;15.45;6.82;;;-2.30;99.90;;;;;;5084894;28;20279;-85
2022/12/14 06:01:51;;;;;;;13.02;7.45;;;-2.20;99.90;;;;;;5083575;28;20212;-84
2022/12/14 06:04:18;;;;;;;13.27;6.78;;;-2.40;99.90;;;;;;5083887;28;20188;-85
2022/12/14 06:06:46;;;;;;;11.13;6.78;;;-2.20;99.90;;;;;;5084316;28;20216;-85
2022/12/14 06:09:16;;;;;;;12.95;7.18;;;-2.30;99.90;;;;;;5084570;28;20198;-84
2022/12/14 06:11:48;;;;;;;11.80;6.40;;;-2.20;99.90;;;;;;5083855;28;20209;-85
2022/12/14 06:14:23;;;;;;;13.20;7.10;;;-2.30;99.90;;;;;;5083540;28;20197;-85
2022/12/14 06:16:55;;;;;;;11.90;5.82;;;-2.30;99.90;;;;;;5083010;28;20219;-85
2022/12/14 06:19:22;;;;;;;10.85;6.07;;;-2.30;99.90;;;;;;5085663;28;20798;-85
2022/12/14 06:22:10;;;;;;;13.38;6.45;;;-2.20;99.90;;;;;;5084067;28;20261;-85
2022/12/14 06:25:00;;;;;;;10.95;6.90;;;-2.20;99.90;;;;;;5076005;28;20197;-85
2022/12/14 06:27:27;;;;;;;13.73;7.57;;;-2.10;99.90;;;;;;5083733;28;20194;-85
2022/12/14 06:30:08;;;;;;;15.57;8.77;;;-2.30;99.90;;;;;;5083715;28;20200;-84
2022/12/14 06:32:35;;;;;;;10.80;6.25;;;-2.10;99.90;;;;;;5082875;28;20720;-84
2022/12/14 06:35:01;;;;;;;12.45;6.57;;;-2.30;99.90;;;;;;5083474;28;20197;-84
2022/12/14 06:37:36;;;;;;;19.88;11.68;;;-2.20;99.90;;;;;;5083123;28;20196;-84
2022/12/14 06:40:05;;;;;;;19.20;9.65;;;-2.20;99.90;;;;;;5081144;28;20279;-85
2022/12/14 06:42:31;;;;;;;56.30;22.10;;;-2.30;99.90;;;;;;5081820;28;20220;-84
2022/12/14 06:44:58;;;;;;;45.20;19.50;;;-2.20;99.90;;;;;;5082420;28;20203;-84
2022/12/14 06:47:25;;;;;;;43.58;17.67;;;-2.20;99.90;;;;;;5082664;28;20211;-84
2022/12/14 06:49:52;;;;;;;29.17;12.45;;;-2.20;99.90;;;;;;5082468;28;20339;-85
2022/12/14 06:52:19;;;;;;;14.73;8.10;;;-2.20;99.90;;;;;;5083010;28;20216;-84
2022/12/14 06:54:46;;;;;;;22.70;10.75;;;-2.10;99.90;;;;;;5083159;28;20201;-84
2022/12/14 06:57:14;;;;;;;17.13;9.40;;;-2.10;99.90;;;;;;5082550;28;20196;-85
2022/12/14 06:59:41;;;;;;;20.33;8.50;;;-2.10;99.90;;;;;;5078949;28;20200;-84
2022/12/14 07:02:09;;;;;;;15.02;7.95;;;-2.20;99.90;;;;;;5081106;28;20209;-85
2022/12/14 07:04:36;;;;;;;14.50;7.50;;;-2.10;99.90;;;;;;5081181;28;20200;-84
2022/12/14 07:07:03;;;;;;;13.50;7.15;;;-2.10;99.90;;;;;;5080587;28;20184;-84
2022/12/14 07:09:29;;;;;;;11.70;6.15;;;-2.10;99.90;;;;;;5079668;28;20204;-84
2022/12/14 07:11:56;;;;;;;14.82;7.53;;;-2.10;99.90;;;;;;5079218;28;20586;-85
2022/12/14 07:14:24;;;;;;;12.45;6.68;;;-2.10;99.90;;;;;;5080452;28;20199;-85
2022/12/14 07:16:51;;;;;;;12.40;7.30;;;-2.20;99.90;;;;;;5079238;28;20279;-85
2022/12/14 07:19:18;;;;;;;12.48;6.82;;;-2.10;99.90;;;;;;5080176;28;20199;-85
2022/12/14 07:21:45;;;;;;;13.05;6.55;;;-2.10;99.90;;;;;;5079342;28;20213;-85
2022/12/14 07:24:12;;;;;;;12.02;7.53;;;-2.10;99.90;;;;;;5080843;28;20280;-83
2022/12/14 07:26:39;;;;;;;14.38;7.40;;;-2.20;99.90;;;;;;5081210;28;20200;-85
2022/12/14 07:29:13;;;;;;;12.85;7.30;;;-2.10;99.90;;;;;;5079098;28;20188;-85
2022/12/14 07:31:48;;;;;;;15.77;7.88;;;-2.10;99.90;;;;;;5079462;28;20215;-86
2022/12/14 07:34:32;;;;;;;;;;;;;;;;;;;;;
2022/12/14 07:36:59;;;;;;;11.57;6.63;;;-2.10;99.90;;;;;;5080062;28;20196;-85
2022/12/14 07:39:26;;;;;;;16.17;7.65;;;-2.10;99.90;;;;;;5080983;28;20195;-85
2022/12/14 07:41:53;;;;;;;13.68;7.30;;;-2.00;99.90;;;;;;5079615;28;20212;-85
2022/12/14 07:44:20;;;;;;;26.58;13.13;;;-2.00;99.90;;;;;;5079804;28;20536;-85
2022/12/14 07:46:48;;;;;;;15.23;6.88;;;-2.00;99.90;;;;;;5079753;28;20188;-85
2022/12/14 07:49:15;;;;;;;13.38;6.20;;;-2.00;99.90;;;;;;5080189;28;20216;-85
2022/12/14 07:51:43;;;;;;;14.25;6.50;;;-1.90;99.90;;;;;;5080101;28;20251;-85
2022/12/14 07:54:11;;;;;;;13.15;6.60;;;-2.00;99.90;;;;;;5080834;28;20215;-86
2022/12/14 07:56:47;;;;;;;13.98;7.38;;;-1.70;99.90;;;;;;5081505;28;20189;-84
2022/12/14 07:59:18;;;;;;;8.60;5.85;;;-1.80;99.90;;;;;;5062196;28;20193;-85
2022/12/14 08:01:45;;;;;;;14.77;7.57;;;-1.80;99.90;;;;;;5068304;28;20208;-84
2022/12/14 08:04:21;;;;;;;16.50;7.72;;;-1.80;99.90;;;;;;5080272;28;20345;-84
2022/12/14 08:06:48;;;;;;;14.48;7.03;;;-1.70;99.90;;;;;;5081559;28;20192;-85
2022/12/14 08:09:16;;;;;;;13.60;7.30;;;-1.70;99.90;;;;;;5082040;28;20556;-86
2022/12/14 08:11:43;;;;;;;14.43;6.72;;;-1.60;99.90;;;;;;5082380;28;20220;-85
2022/12/14 08:14:15;;;;;;;13.50;7.33;;;-1.50;99.90;;;;;;5083064;28;20230;-85
2022/12/14 08:16:43;;;;;;;15.45;8.20;;;-1.40;99.90;;;;;;5082779;28;20454;-85
2022/12/14 08:19:10;;;;;;;11.15;6.60;;;-1.30;99.90;;;;;;5082430;28;20212;-84
2022/12/14 08:21:39;;;;;;;12.00;6.55;;;-1.40;99.90;;;;;;5083007;28;20224;-86
2022/12/14 08:24:06;;;;;;;16.67;6.03;;;-1.40;99.90;;;;;;5082484;28;20196;-86
2022/12/14 08:26:34;;;;;;;12.02;7.13;;;-1.40;99.90;;;;;;5082751;28;20211;-84
2022/12/14 08:29:01;;;;;;;15.00;7.20;;;-1.30;99.90;;;;;;5083277;28;20200;-85
2022/12/14 08:31:31;;;;;;;16.92;7.38;;;-1.30;99.90;;;;;;5080795;28;20311;-86
2022/12/14 08:33:59;;;;;;;17.42;7.68;;;-1.30;99.90;;;;;;5081102;28;20193;-86
2022/12/14 08:36:28;;;;;;;15.73;7.15;;;-1.20;99.90;;;;;;5082530;28;20648;-85
2022/12/14 08:39:00;;;;;;;15.27;7.28;;;-1.20;99.90;;;;;;5082460;28;20207;-86
2022/12/14 08:41:30;;;;;;;10.60;5.65;;;-1.10;99.90;;;;;;5084248;28;20270;-86
2022/12/14 08:44:03;;;;;;;18.52;7.18;;;-1.00;99.90;;;;;;5083045;28;20245;-86
2022/12/14 08:46:36;;;;;;;14.02;7.45;;;-1.10;99.90;;;;;;5083535;28;20192;-86
2022/12/14 08:49:03;;;;;;;12.50;7.70;;;-1.10;99.90;;;;;;5083583;28;20193;-85
2022/12/14 08:51:37;;;;;;;14.75;7.63;;;-0.90;99.90;;;;;;5082789;28;20212;-87
2022/12/14 08:54:06;;;;;;;16.58;7.90;;;-0.80;99.90;;;;;;5081988;28;20195;-86
2022/12/14 08:56:35;;;;;;;13.50;7.27;;;-1.00;99.70;;;;;;5085518;28;20227;-84
2022/12/14 08:59:01;;;;;;;12.90;7.17;;;-0.90;99.50;;;;;;5087861;28;20468;-86
2022/12/14 09:01:34;;;;;;;11.88;6.20;;;-0.70;99.20;;;;;;5077896;28;20490;-86
2022/12/14 09:04:03;;;;;;;14.73;8.30;;;-0.80;99.00;;;;;;5092791;28;20187;-86
2022/12/14 09:06:30;;;;;;;14.83;6.60;;;-0.50;99.30;;;;;;5109439;28;20460;-86
2022/12/14 09:08:58;;;;;;;11.27;6.10;;;-0.60;99.00;;;;;;5096770;28;20473;-86
2022/12/14 09:11:29;;;;;;;14.60;6.90;;;-0.60;99.00;;;;;;5087723;28;20466;-86
2022/12/14 09:13:57;;;;;;;12.10;6.27;;;-0.50;99.20;;;;;;5088493;28;20446;-86
2022/12/14 09:16:26;;;;;;;12.10;6.93;;;-0.50;99.50;;;;;;5086624;28;20446;-86
2022/12/14 09:19:00;;;;;;;14.95;6.88;;;-0.50;99.60;;;;;;5088761;28;20204;-87
2022/12/14 09:21:30;;;;;;;13.90;7.17;;;-0.50;99.20;;;;;;5087598;28;20216;-85
2022/12/14 09:24:43;;;;;;;9.63;7.40;;;-0.40;99.00;;;;;;5087076;28;20450;-86
2022/12/14 09:27:13;;;;;;;13.10;7.20;;;-0.40;98.40;;;;;;5071268;28;20458;-85
2022/12/14 09:29:42;;;;;;;15.90;7.07;;;-0.30;98.10;;;;;;5084645;28;20195;-85
2022/12/14 09:32:09;;;;;;;9.17;6.13;;;-0.20;98.20;;;;;;5084009;28;20478;-86
2022/12/14 09:34:36;;;;;;;13.90;7.60;;;-0.20;97.60;;;;;;5085536;28;20508;-86
2022/12/14 09:37:06;;;;;;;10.23;6.60;;;-0.10;97.80;;;;;;5084059;28;20447;-86
2022/12/14 09:39:34;;;;;;;17.17;6.60;;;0.00;99.00;;;;;;5084387;28;20776;-86
2022/12/14 09:42:22;;;;;;;12.97;6.67;;;0.00;98.50;;;;;;5084389;28;20488;-86
2022/12/14 09:44:59;;;;;;;13.40;7.33;;;-0.10;98.60;;;;;;5084524;28;20462;-86
2022/12/14 09:47:35;;;;;;;14.07;8.03;;;0.10;98.50;;;;;;5084090;28;20529;-86
2022/12/14 09:50:05;;;;;;;14.13;6.80;;;0.20;98.20;;;;;;5083483;28;20697;-86
2022/12/14 09:52:36;;;;;;;11.63;6.40;;;0.20;98.70;;;;;;5083319;28;20505;-86
2022/12/14 09:55:14;;;;;;;17.38;7.47;;;0.20;97.50;;;;;;5083967;28;20461;-85
2022/12/14 09:57:45;;;;;;;11.97;7.00;;;0.30;97.20;;;;;;5064637;28;20232;-86
2022/12/14 10:00:17;;;;;;;12.00;6.50;;;0.30;96.90;;;;;;5064713;28;20471;-85
2022/12/14 10:02:57;;;;;;;14.67;8.70;;;0.40;95.90;;;;;;5083642;28;20475;-86
2022/12/14 10:05:53;;;;;;;12.43;7.10;;;0.40;95.60;;;;;;5083284;28;20462;-86
2022/12/14 10:08:26;;;;;;;15.32;8.75;;;0.40;95.30;;;;;;5082962;28;20490;-86
2022/12/14 10:11:03;;;;;;;13.10;7.90;;;0.50;94.90;;;;;;5083076;28;20644;-87
2022/12/14 10:13:44;;;;;;;17.93;9.50;;;0.50;95.10;;;;;;5084057;28;20796;-86
2022/12/14 10:16:24;;;;;;;17.50;9.00;;;0.60;96.20;;;;;;5083942;28;20454;-86
2022/12/14 10:19:03;;;;;;;13.77;7.60;;;0.50;94.60;;;;;;5083196;28;20192;-86
2022/12/14 10:21:51;;;;;;;15.90;8.70;;;0.70;94.80;;;;;;5082973;28;20525;-86
2022/12/14 10:24:22;;;;;;;14.33;7.67;;;0.80;95.70;;;;;;5083387;28;20457;-86
2022/12/14 10:26:51;;;;;;;20.20;9.80;;;0.90;95.40;;;;;;5084976;28;20442;-85
2022/12/14 10:29:26;;;;;;;15.20;9.03;;;0.80;94.80;;;;;;5083165;28;20533;-85
2022/12/14 10:32:01;;;;;;;21.30;8.47;;;0.90;94.80;;;;;;5082582;28;20473;-85
2022/12/14 10:34:30;;;;;;;16.47;7.90;;;0.90;94.50;;;;;;5083127;28;20962;-85
2022/12/14 10:37:11;;;;;;;16.20;8.87;;;0.90;94.60;;;;;;5082823;28;20450;-85
2022/12/14 10:39:50;;;;;;;12.10;7.77;;;0.90;94.50;;;;;;5083009;28;20504;-85
2022/12/14 10:42:26;;;;;;;15.20;8.77;;;0.80;95.00;;;;;;5081355;28;20462;-85
2022/12/14 10:45:04;;;;;;;12.90;7.73;;;0.80;95.10;;;;;;5076850;28;20480;-85
2022/12/14 10:47:35;;;;;;;13.93;8.07;;;0.90;95.20;;;;;;5081768;28;20513;-85
2022/12/14 10:50:15;;;;;;;19.30;9.03;;;1.10;95.30;;;;;;5075708;28;20451;-85
2022/12/14 10:52:44;;;;;;;14.67;8.30;;;1.00;95.30;;;;;;5081063;28;20466;-85
2022/12/14 10:55:15;;;;;;;18.70;8.63;;;1.10;95.40;;;;;;5081033;28;20442;-86
2022/12/14 10:57:43;;;;;;;14.43;7.80;;;1.20;94.90;;;;;;5080903;28;20454;-85
2022/12/14 11:00:16;;;;;;;16.30;7.70;;;1.10;95.60;;;;;;5081043;28;20529;-88
2022/12/14 11:02:45;;;;;;;18.90;8.97;;;1.30;94.70;;;;;;5081006;28;20549;-86
2022/12/14 11:05:27;;;;;;;20.70;7.80;;;1.40;94.80;;;;;;5082694;28;20955;-86
2022/12/14 11:07:54;;;;;;;17.80;8.83;;;1.50;95.00;;;;;;5081964;28;20443;-87
2022/12/14 11:10:24;;;;;;;19.73;10.73;;;1.60;94.80;;;;;;5080741;28;20446;-86
2022/12/14 11:13:02;;;;;;;21.53;12.73;;;1.70;94.80;;;;;;5080539;28;20473;-86
2022/12/14 11:15:33;;;;;;;15.13;9.20;;;1.70;94.80;;;;;;5079357;28;20537;-84
2022/12/14 11:18:03;;;;;;;15.43;8.00;;;1.70;94.90;;;;;;5079618;28;20447;-84
2022/12/14 11:20:31;;;;;;;16.87;9.20;;;1.60;94.80;;;;;;5081521;28;20507;-86
2022/12/14 11:23:06;;;;;;;23.10;8.87;;;1.60;94.80;;;;;;5079791;28;20466;-86
2022/12/14 11:25:39;;;;;;;17.87;10.60;;;1.50;94.80;;;;;;5078683;28;20461;-86
2022/12/14 11:28:24;;;;;;;14.97;8.93;;;1.50;94.80;;;;;;5078169;28;20954;-86
2022/12/14 11:30:59;;;;;;;17.73;11.20;;;1.50;94.50;;;;;;5079544;28;20477;-85
2022/12/14 11:33:32;;;;;;;17.47;9.50;;;1.60;94.80;;;;;;5078388;28;20454;-85
2022/12/14 11:35:58;;;;;;;24.27;9.83;;;1.50;94.80;;;;;;5079155;28;20464;-84
2022/12/14 11:38:27;;;;;;;17.97;9.67;;;1.50;94.80;;;;;;5078365;28;20447;-84
2022/12/14 11:40:54;;;;;;;18.23;9.00;;;1.50;94.80;;;;;;5078159;28;20446;-84
2022/12/14 11:43:27;;;;;;;17.90;9.40;;;1.50;94.80;;;;;;5078923;28;20443;-84
2022/12/14 11:45:56;;;;;;;18.93;10.03;;;1.40;95.30;;;;;;5078648;28;20965;-84
2022/12/14 11:48:26;;;;;;;16.60;8.17;;;1.50;95.50;;;;;;5078080;28;20450;-84
2022/12/14 11:50:54;;;;;;;18.30;10.23;;;1.50;94.80;;;;;;5077196;28;20470;-84
2022/12/14 11:53:22;;;;;;;18.80;11.43;;;1.40;95.30;;;;;;5078338;28;20443;-84
2022/12/14 11:55:54;;;;;;;22.13;11.13;;;1.50;96.00;;;;;;5077025;28;20451;-84
2022/12/14 11:58:24;;;;;;;19.20;11.20;;;1.40;95.80;;;;;;5076953;28;20455;-84
2022/12/14 12:00:55;;;;;;;18.83;10.57;;;1.40;96.20;;;;;;5077001;28;20460;-84
2022/12/14 12:03:27;;;;;;;17.63;9.60;;;1.30;96.40;;;;;;5076520;28;20451;-84
2022/12/14 12:05:59;;;;;;;22.17;10.60;;;1.30;96.90;;;;;;5076181;28;20450;-84
2022/12/14 12:08:27;;;;;;;21.03;10.70;;;1.40;97.60;;;;;;5076278;28;20815;-84
2022/12/14 12:10:57;;;;;;;19.13;10.30;;;1.50;97.90;;;;;;5075408;28;20454;-84
2022/12/14 12:13:28;;;;;;;18.87;11.83;;;1.80;96.90;;;;;;5076830;28;20967;-84
2022/12/14 12:15:57;;;;;;;22.47;14.20;;;2.20;95.80;;;;;;5075950;28;20478;-84
2022/12/14 12:18:33;;;;;;;25.97;11.40;;;2.90;95.30;;;;;;5077653;28;20461;-85
2022/12/14 12:21:04;;;;;;;19.83;11.73;;;3.60;93.50;;;;;;5077246;28;20467;-85
2022/12/14 12:23:39;;;;;;;19.53;10.70;;;4.40;92.30;;;;;;5079016;28;20517;-85
2022/12/14 12:26:13;;;;;;;18.97;11.50;;;4.90;90.30;;;;;;5079993;28;20454;-85
2022/12/14 12:28:43;;;;;;;17.70;13.17;;;5.40;89.30;;;;;;5080348;28;20537;-85
2022/12/14 12:31:16;;;;;;;24.10;14.07;;;5.70;82.90;;;;;;5077344;28;20541;-85
2022/12/14 12:33:49;;;;;;;28.43;21.00;;;6.00;82.20;;;;;;5078629;28;20458;-85
2022/12/14 12:36:19;;;;;;;32.53;26.00;;;5.90;79.80;;;;;;5080207;28;20482;-84
2022/12/14 12:38:56;;;;;;;22.50;16.10;;;5.60;82.00;;;;;;5080597;28;20448;-84
2022/12/14 12:41:32;;;;;;;17.90;12.50;;;5.10;81.50;;;;;;5070546;28;20466;-85
2022/12/14 12:44:06;;;;;;;21.30;10.65;;;4.80;83.60;;;;;;5077314;28;20432;-85
2022/12/14 12:46:44;;;;;;;20.43;11.07;;;4.40;84.60;;;;;;5078779;28;20219;-84
2022/12/14 12:49:14;;;;;;;16.63;10.43;;;3.90;86.70;;;;;;5078098;28;20450;-84
2022/12/14 12:51:46;;;;;;;19.60;11.33;;;3.50;87.70;;;;;;5077279;28;20486;-84
2022/12/14 12:54:19;;;;;;;20.80;10.93;;;2.90;89.30;;;;;;5079029;28;20534;-84
2022/12/14 12:56:48;;;;;;;17.13;10.70;;;2.60;90.60;;;;;;5080147;28;20447;-84
2022/12/14 12:59:19;;;;;;;20.27;11.63;;;2.20;91.10;;;;;;5080233;28;20457;-84
2022/12/14 13:01:49;;;;;;;21.90;10.90;;;1.90;91.60;;;;;;5078842;28;20481;-84
2022/12/14 13:04:26;;;;;;;15.03;10.30;;;1.80;92.80;;;;;;5079961;28;20454;-84
2022/12/14 13:06:57;;;;;;;22.70;10.47;;;1.60;93.40;;;;;;5079032;28;20457;-83
2022/12/14 13:09:38;;;;;;;36.17;26.03;;;1.40;93.90;;;;;;5078424;28;20450;-84
2022/12/14 13:12:13;;;;;;;20.50;10.93;;;1.40;94.70;;;;;;5081475;28;20514;-84
2022/12/14 13:14:44;;;;;;;28.83;16.67;;;1.20;94.70;;;;;;5089407;28;20456;-83